Time;durP1;ratioP1;P1;durP2;ratioP2;P2;SDS_P1;SDS_P2;PMS_P1;PMS_P2;Temp;Humidity;BMP_temperature;BMP_pressure;BME280_temperature;BME280_humidity;BME280_pressure;Samples;Min_cycle;Max_cycle;Signal;HPM_P1;HPM_P2
2022/12/30 00:01:24;;;;;;;0.83;0.60;;;;;;;9.44;85.32;98578.47;4987506;28;102873;-67
2022/12/30 00:03:54;;;;;;;0.70;0.60;;;;;;;9.48;85.18;98575.53;4981563;28;102735;-66
2022/12/30 00:06:23;;;;;;;0.83;0.50;;;;;;;9.48;85.32;98575.53;4988955;28;103350;-66
2022/12/30 00:08:56;;;;;;;1.40;0.50;;;;;;;9.45;85.53;98569.63;4988095;28;103240;-67
2022/12/30 00:11:27;;;;;;;0.63;0.40;;;;;;;9.51;86.65;98570.03;4990597;28;102695;-66
2022/12/30 00:33:51;;;;;;;0.53;0.53;;;;;;;9.22;87.16;98587.03;4984167;28;102581;-66
2022/12/30 00:36:23;;;;;;;0.60;0.47;;;;;;;9.27;86.85;98577.84;4991308;28;102693;-67
2022/12/30 00:38:51;;;;;;;1.50;0.47;;;;;;;9.21;87.44;98588.81;4986533;28;103327;-66
2022/12/30 00:44:07;;;;;;;0.70;0.50;;;;;;;9.17;87.49;98595.25;4985034;28;104236;-67
2022/12/30 00:46:36;;;;;;;0.73;0.57;;;;;;;9.19;87.00;98589.88;4992899;28;102762;-67
2022/12/30 00:57:24;;;;;;;0.60;0.50;;;;;;;9.07;87.70;98593.31;4987105;28;102757;-67
2022/12/30 00:59:52;;;;;;;1.17;0.40;;;;;;;9.09;87.39;98599.34;4989052;28;104366;-67
2022/12/30 01:02:20;;;;;;;0.60;0.60;;;;;;;9.01;87.65;98607.75;4982258;28;103269;-66
2022/12/30 01:04:48;;;;;;;0.50;0.40;;;;;;;9.05;88.22;98613.66;4989325;28;102541;-66
2022/12/30 01:07:18;;;;;;;1.30;0.63;;;;;;;9.08;87.68;98618.75;4987627;28;103004;-66
2022/12/30 01:09:46;;;;;;;1.13;0.53;;;;;;;9.02;87.73;98625.28;4987992;28;102955;-67
2022/12/30 01:12:14;;;;;;;1.67;0.60;;;;;;;9.07;87.92;98638.13;4983263;28;102995;-67
2022/12/30 01:14:54;;;;;;;0.57;0.40;;;;;;;9.17;87.69;98634.78;4981828;28;102924;-66
2022/12/30 01:17:25;;;;;;;0.40;0.30;;;;;;;9.16;87.65;98632.25;4983835;28;102637;-66
2022/12/30 01:19:53;;;;;;;0.30;0.30;;;;;;;9.18;88.23;98640.88;4983141;28;103179;-66
2022/12/30 01:22:22;;;;;;;0.50;0.40;;;;;;;9.22;87.78;98640.59;4988889;28;103211;-66
2022/12/30 01:24:50;;;;;;;0.60;0.60;;;;;;;9.13;87.70;98629.81;4985245;28;102697;-66
2022/12/30 01:27:19;;;;;;;0.80;0.50;;;;;;;9.07;88.50;98638.13;4984390;28;103093;-67
2022/12/30 01:29:47;;;;;;;0.90;0.60;;;;;;;9.18;87.91;98635.59;4981598;28;103234;-66
2022/12/30 01:32:18;;;;;;;0.40;0.40;;;;;;;9.27;88.06;98637.63;4982923;28;103162;-67
2022/12/30 01:34:46;;;;;;;2.10;1.60;;;;;;;9.28;87.78;98642.81;4984026;28;102716;-67
2022/12/30 01:37:15;;;;;;;1.17;0.80;;;;;;;9.18;88.72;98649.63;4987017;28;102594;-67
2022/12/30 01:39:44;;;;;;;1.23;0.90;;;;;;;9.12;88.74;98646.59;4985257;28;104140;-66
2022/12/30 01:42:19;;;;;;;1.33;1.00;;;;;;;9.20;88.76;98652.19;4985579;28;103613;-67
2022/12/30 01:44:56;;;;;;;1.27;0.70;;;;;;;9.27;88.38;98650.81;4980334;28;103155;-67
2022/12/30 01:47:38;;;;;;;0.50;0.50;;;;;;;9.27;87.89;98651.66;4980213;28;102660;-66
2022/12/30 01:50:19;;;;;;;1.03;0.73;;;;;;;8.97;89.39;98652.88;4979426;28;104190;-65
2022/12/30 01:52:51;;;;;;;0.80;0.57;;;;;;;9.06;89.12;98649.63;4985866;28;103147;-66
2022/12/30 01:55:26;;;;;;;0.53;0.40;;;;;;;9.11;88.82;98655.44;4983143;28;102718;-65
2022/12/30 01:57:56;;;;;;;1.10;0.60;;;;;;;9.06;88.35;98657.53;4990703;28;102868;-66
2022/12/30 02:00:24;;;;;;;0.70;0.70;;;;;;;8.93;88.35;98651.38;4988101;28;103972;-66
2022/12/30 02:02:54;;;;;;;1.30;0.50;;;;;;;8.80;89.23;98659.25;4983218;28;103206;-66
2022/12/30 02:05:25;;;;;;;1.37;0.50;;;;;;;8.77;88.98;98655.97;4982942;28;102781;-66
2022/12/30 02:08:05;;;;;;;0.40;0.40;;;;;;;8.79;89.24;98660.19;4985373;28;102739;-66
2022/12/30 02:10:37;;;;;;;0.60;0.60;;;;;;;8.42;91.08;98656.47;4982373;28;104211;-66
2022/12/30 02:13:06;;;;;;;0.83;0.57;;;;;;;8.69;90.20;98659.13;4982471;28;103304;-66
2022/12/30 02:15:41;;;;;;;0.60;0.60;;;;;;;8.68;89.20;98647.72;4984568;28;102753;-65
2022/12/30 02:18:18;;;;;;;1.10;0.50;;;;;;;8.66;89.11;98654.91;4984805;28;102713;-65
2022/12/30 02:21:16;;;;;;;0.50;0.40;;;;;;;8.65;88.73;98652.34;5005949;27;103822;-65
2022/12/30 02:24:07;;;;;;;0.63;0.50;;;;;;;8.66;88.69;98654.91;4983507;28;103196;-65
2022/12/30 02:27:04;;;;;;;0.70;0.57;;;;;;;8.58;88.19;98662.44;4986043;28;102636;-66
2022/12/30 02:30:03;;;;;;;0.73;0.40;;;;;;;8.53;88.91;98669.78;4986389;28;102873;-66
2022/12/30 02:32:40;;;;;;;1.07;0.50;;;;;;;8.29;89.15;98670.50;4980773;28;103631;-65
2022/12/30 02:35:18;;;;;;;0.83;0.40;;;;;;;8.40;89.83;98676.78;4986949;28;103199;-65
2022/12/30 02:37:55;;;;;;;0.40;0.40;;;;;;;8.47;89.40;98686.00;4978143;28;103082;-66
2022/12/30 02:40:27;;;;;;;0.57;0.57;;;;;;;8.33;89.08;98683.41;4986551;28;104811;-66
2022/12/30 02:45:58;;;;;;;1.00;0.50;;;;;;;8.05;90.39;98691.31;4960146;28;103172;-66
2022/12/30 02:48:31;;;;;;;0.90;0.60;;;;;;;7.97;91.23;98691.75;4979791;28;102735;-65
2022/12/30 02:53:48;;;;;;;0.83;0.60;;;;;;;7.66;92.53;98691.97;4964747;28;103318;-65
2022/12/30 02:56:17;;;;;;;0.80;0.80;;;;;;;7.71;91.59;98684.63;4988348;28;102997;-65
2022/12/30 02:58:49;;;;;;;1.07;0.90;;;;;;;7.52;92.36;98687.50;4976900;28;102787;-66
2022/12/30 03:04:26;;;;;;;0.90;0.70;;;;;;;7.46;92.49;98702.81;5009914;27;103543;-65
2022/12/30 03:07:07;;;;;;;1.07;0.53;;;;;;;7.39;93.61;98704.97;4990310;28;103200;-65
2022/12/30 03:12:46;;;;;;;0.93;0.53;;;;;;;7.67;92.61;98717.31;4981158;28;103718;-66
2022/12/30 03:15:18;;;;;;;0.70;0.60;;;;;;;7.74;91.50;98705.50;4978742;28;103371;-65
2022/12/30 03:17:48;;;;;;;0.50;0.50;;;;;;;7.77;90.90;98714.97;4981615;28;103159;-66
2022/12/30 03:20:22;;;;;;;1.10;0.57;;;;;;;7.76;90.10;98703.59;4983911;28;102694;-65
2022/12/30 03:28:27;;;;;;;0.83;0.80;;;;;;;6.94;91.57;98697.13;4966092;28;103316;-65
2022/12/30 03:31:00;;;;;;;0.70;0.70;;;;;;;6.66;92.77;98704.88;4979891;28;102675;-65
2022/12/30 03:33:30;;;;;;;2.20;0.53;;;;;;;6.50;94.51;98711.94;4985410;28;102596;-65
2022/12/30 03:36:09;;;;;;;0.93;0.60;;;;;;;6.89;93.27;98709.69;4985059;28;103183;-66
2022/12/30 03:38:40;;;;;;;2.07;0.83;;;;;;;6.93;93.06;98705.97;4984109;28;103259;-65
2022/12/30 03:41:10;;;;;;;0.97;0.77;;;;;;;6.99;92.93;98710.84;4979203;28;102522;-66
2022/12/30 03:43:39;;;;;;;1.00;0.80;;;;;;;7.09;93.06;98696.25;4985807;28;102697;-66
2022/12/30 03:46:07;;;;;;;0.73;0.70;;;;;;;7.14;92.47;98688.09;4981773;28;103216;-66
2022/12/30 03:48:35;;;;;;;0.87;0.70;;;;;;;7.19;92.10;98697.41;4982819;28;103693;-66
2022/12/30 03:51:05;;;;;;;3.03;0.90;;;;;;;7.15;91.16;98695.91;4987686;28;103245;-67
2022/12/30 03:53:33;;;;;;;1.67;0.90;;;;;;;6.82;90.58;98698.69;4979058;28;102948;-66
2022/12/30 03:56:02;;;;;;;1.53;1.00;;;;;;;6.63;90.58;98703.28;4979260;28;104208;-67
2022/12/30 03:58:29;;;;;;;1.10;0.70;;;;;;;6.70;91.79;98698.53;4985978;28;103264;-67
2022/12/30 04:00:57;;;;;;;0.73;0.60;;;;;;;6.80;91.33;98697.09;4986705;28;102589;-66
2022/12/30 04:03:25;;;;;;;1.77;1.03;;;;;;;6.88;91.25;98694.84;4983737;28;103846;-66
2022/12/30 04:05:54;;;;;;;1.17;0.93;;;;;;;6.58;89.83;98696.59;4978217;28;103266;-66
2022/12/30 04:08:24;;;;;;;0.73;0.70;;;;;;;6.47;91.84;98701.59;4985746;28;103207;-67
2022/12/30 04:10:52;;;;;;;0.70;0.60;;;;;;;6.58;91.83;98694.84;4987542;28;102628;-66
2022/12/30 04:13:20;;;;;;;1.13;0.60;;;;;;;6.68;91.30;98679.41;4983090;28;102684;-66
2022/12/30 04:15:51;;;;;;;0.90;0.80;;;;;;;6.79;91.10;98677.03;4983552;28;102962;-66
2022/12/30 04:18:19;;;;;;;0.70;0.70;;;;;;;6.75;89.91;98670.25;4988221;28;103224;-67
2022/12/30 04:20:48;;;;;;;0.80;0.80;;;;;;;6.72;89.82;98680.91;4983196;28;103249;-67
2022/12/30 04:23:16;;;;;;;3.53;0.93;;;;;;;6.09;91.17;98683.56;4982248;28;102628;-67
2022/12/30 04:25:46;;;;;;;1.30;0.57;;;;;;;5.90;94.07;98684.63;4984850;28;103386;-66
2022/12/30 04:28:14;;;;;;;0.70;0.70;;;;;;;5.99;96.22;98687.63;4987323;28;103041;-67
2022/12/30 04:30:41;;;;;;;1.23;0.70;;;;;;;6.22;95.25;98678.50;4983846;28;102727;-66
2022/12/30 04:33:09;;;;;;;1.20;0.60;;;;;;;6.18;93.85;98688.31;4989669;28;103646;-66
2022/12/30 04:35:37;;;;;;;1.20;0.80;;;;;;;6.05;93.83;98691.69;4985788;28;104024;-67
2022/12/30 04:38:05;;;;;;;1.30;0.70;;;;;;;6.03;94.40;98689.16;4985844;28;103143;-66
2022/12/30 04:40:33;;;;;;;0.80;0.70;;;;;;;5.96;93.84;98685.16;4984210;28;102705;-67
2022/12/30 04:43:02;;;;;;;1.97;0.70;;;;;;;6.15;93.97;98678.00;4984914;28;102615;-66
2022/12/30 04:45:30;;;;;;;1.20;0.73;;;;;;;6.19;92.33;98678.66;4982947;28;103121;-68
2022/12/30 04:47:58;;;;;;;1.10;1.03;;;;;;;6.00;91.74;98683.22;4988051;28;103208;-67
2022/12/30 04:50:26;;;;;;;2.10;0.97;;;;;;;5.34;94.89;98687.59;4986071;28;102661;-67
2022/12/30 04:52:54;;;;;;;1.73;0.80;;;;;;;5.56;95.75;98688.16;4988826;28;102677;-67
2022/12/30 04:55:22;;;;;;;1.83;0.70;;;;;;;5.67;95.47;98688.47;4981695;28;104077;-67
2022/12/30 04:57:50;;;;;;;1.87;0.97;;;;;;;5.91;94.90;98691.59;4985488;28;103244;-67
2022/12/30 05:00:19;;;;;;;0.80;0.63;;;;;;;6.05;94.34;98684.69;4988026;28;102581;-66
2022/12/30 05:02:47;;;;;;;0.63;0.60;;;;;;;6.12;93.68;98686.03;4991026;28;102699;-66
2022/12/30 05:05:16;;;;;;;0.60;0.60;;;;;;;6.14;93.00;98684.19;4986731;28;103775;-67
2022/12/30 05:07:43;;;;;;;0.73;0.50;;;;;;;5.87;92.71;98696.13;4985126;28;103193;-66
2022/12/30 05:10:12;;;;;;;0.63;0.60;;;;;;;5.97;93.14;98705.22;4984529;28;102607;-66
2022/12/30 05:12:40;;;;;;;1.10;0.60;;;;;;;6.11;93.26;98705.34;4987937;28;102821;-66
2022/12/30 05:15:09;;;;;;;0.60;0.60;;;;;;;6.17;92.83;98684.03;4984258;28;104066;-66
2022/12/30 05:17:38;;;;;;;1.90;1.20;;;;;;;6.21;92.74;98684.66;4987248;28;103197;-66
2022/12/30 05:20:06;;;;;;;1.83;0.73;;;;;;;6.25;92.65;98697.56;4992553;28;103706;-66
2022/12/30 05:22:36;;;;;;;1.27;1.10;;;;;;;6.19;90.78;98703.13;4986957;28;102700;-66
2022/12/30 05:27:50;;;;;;;1.10;0.87;;;;;;;6.10;92.06;98693.13;4988414;28;103263;-66
2022/12/30 05:30:18;;;;;;;1.93;0.63;;;;;;;6.13;92.18;98692.97;4986509;28;102629;-66
2022/12/30 05:32:47;;;;;;;1.07;0.60;;;;;;;6.17;92.74;98689.25;4987797;28;102646;-65
2022/12/30 05:35:16;;;;;;;0.90;0.63;;;;;;;6.26;92.60;98687.91;4990805;28;103180;-66
2022/12/30 05:37:43;;;;;;;1.10;0.50;;;;;;;6.25;92.75;98691.47;4985039;28;103288;-66
2022/12/30 05:40:12;;;;;;;0.80;0.63;;;;;;;6.21;93.56;98693.41;4985921;28;102672;-66
2022/12/30 05:42:43;;;;;;;1.27;0.70;;;;;;;6.28;93.40;98697.41;4988675;28;103480;-65
2022/12/30 05:45:11;;;;;;;0.70;0.53;;;;;;;6.33;92.83;98703.22;4981885;28;103221;-65
2022/12/30 05:47:39;;;;;;;0.80;0.43;;;;;;;6.41;92.30;98706.28;4985623;28;103184;-65
2022/12/30 05:50:09;;;;;;;0.37;0.30;;;;;;;6.43;92.50;98706.16;4985747;28;102661;-65
2022/12/30 05:52:38;;;;;;;0.90;0.70;;;;;;;6.45;92.47;98706.09;4990185;28;102702;-66
2022/12/30 05:55:07;;;;;;;0.90;0.50;;;;;;;6.50;92.53;98706.69;4982960;28;103247;-65
2022/12/30 05:57:35;;;;;;;1.57;0.97;;;;;;;6.27;93.47;98698.31;4983879;28;103331;-66
2022/12/30 06:00:04;;;;;;;3.07;0.90;;;;;;;6.33;93.08;98694.50;4982954;28;103769;-65
2022/12/30 06:02:33;;;;;;;1.57;0.90;;;;;;;6.38;93.42;98695.09;4988753;28;103631;-66
2022/12/30 06:05:10;;;;;;;1.97;1.20;;;;;;;6.37;92.91;98691.63;4991460;28;102600;-66
2022/12/30 06:07:38;;;;;;;3.70;2.40;;;;;;;6.48;92.92;98688.41;4988359;28;103232;-66
2022/12/30 06:10:07;;;;;;;1.70;0.93;;;;;;;6.40;92.92;98690.59;4987041;28;102650;-66
2022/12/30 06:12:35;;;;;;;1.10;0.80;;;;;;;6.47;92.39;98686.72;4987127;28;102680;-66
2022/12/30 06:15:03;;;;;;;1.07;0.70;;;;;;;6.36;92.71;98687.31;4987276;28;103227;-66
2022/12/30 06:17:32;;;;;;;0.90;0.80;;;;;;;6.33;92.69;98684.88;4983321;28;103074;-66
2022/12/30 06:20:00;;;;;;;1.00;0.70;;;;;;;6.46;91.95;98689.44;4990675;28;102639;-67
2022/12/30 06:22:29;;;;;;;1.20;0.70;;;;;;;6.43;91.96;98693.91;4984647;28;103049;-66
2022/12/30 06:24:57;;;;;;;0.90;0.70;;;;;;;6.49;91.57;98697.97;4983536;28;103090;-66
2022/12/30 06:27:25;;;;;;;0.80;0.70;;;;;;;6.51;91.21;98704.00;4982281;28;103326;-66
2022/12/30 06:29:53;;;;;;;1.03;0.53;;;;;;;6.57;90.93;98697.56;4982649;28;102701;-66
2022/12/30 06:32:20;;;;;;;0.53;0.53;;;;;;;6.57;90.75;98701.00;4980885;28;102696;-67
2022/12/30 06:34:48;;;;;;;0.60;0.50;;;;;;;6.57;90.36;98693.13;4983577;28;103229;-66
2022/12/30 06:37:16;;;;;;;1.43;0.50;;;;;;;6.56;90.29;98690.59;4981877;28;103219;-67
2022/12/30 06:39:45;;;;;;;1.43;0.97;;;;;;;6.53;90.07;98701.28;4983615;28;102692;-67
2022/12/30 06:42:13;;;;;;;2.30;0.80;;;;;;;6.48;90.54;98703.31;4977885;28;102682;-67
2022/12/30 06:44:41;;;;;;;0.60;0.50;;;;;;;6.46;90.78;98695.50;4987350;28;103221;-67
2022/12/30 06:47:09;;;;;;;1.70;0.70;;;;;;;6.46;90.94;98694.69;4989058;28;103290;-67
2022/12/30 06:49:39;;;;;;;1.13;0.80;;;;;;;6.49;90.59;98700.59;4983793;28;102642;-67
2022/12/30 06:52:07;;;;;;;1.10;0.67;;;;;;;6.27;91.57;98695.69;4987390;28;103828;-67
2022/12/30 06:54:35;;;;;;;1.23;0.63;;;;;;;6.07;90.70;98689.81;4984992;28;103829;-67
2022/12/30 06:57:04;;;;;;;0.67;0.67;;;;;;;6.22;90.54;98692.47;4983657;28;103248;-67
2022/12/30 06:59:32;;;;;;;0.90;0.70;;;;;;;6.08;89.72;98689.75;4986616;28;102541;-68
2022/12/30 07:02:00;;;;;;;0.83;0.70;;;;;;;6.16;89.91;98690.19;4982525;28;103390;-67
2022/12/30 07:04:28;;;;;;;0.73;0.67;;;;;;;5.63;90.60;98697.41;4985384;28;104012;-67
2022/12/30 07:06:56;;;;;;;0.90;0.60;;;;;;;5.96;90.39;98694.81;4986003;28;104080;-67
2022/12/30 07:09:24;;;;;;;1.10;0.80;;;;;;;6.00;90.07;98697.19;4984504;28;103076;-67
2022/12/30 07:11:52;;;;;;;1.13;0.70;;;;;;;6.10;90.24;98701.00;4987568;28;102585;-67
2022/12/30 07:14:21;;;;;;;0.87;0.80;;;;;;;6.14;89.97;98697.28;4985505;28;103320;-67
2022/12/30 07:16:49;;;;;;;1.30;0.93;;;;;;;6.20;89.91;98699.56;4981290;28;103203;-67
2022/12/30 07:19:17;;;;;;;1.40;1.00;;;;;;;6.00;89.97;98702.44;4984974;28;103975;-67
2022/12/30 07:21:45;;;;;;;0.87;0.77;;;;;;;6.03;89.95;98711.91;4982978;28;103818;-67
2022/12/30 07:24:13;;;;;;;0.80;0.80;;;;;;;5.81;90.46;98710.38;4985578;28;103222;-67
2022/12/30 07:26:41;;;;;;;1.80;1.00;;;;;;;5.97;90.39;98705.22;4982164;28;103356;-67
2022/12/30 07:29:09;;;;;;;3.23;1.10;;;;;;;5.89;90.06;98712.66;4982956;28;102756;-67
2022/12/30 07:31:38;;;;;;;1.30;1.20;;;;;;;5.88;91.22;98705.72;4983707;28;102799;-67
2022/12/30 07:34:07;;;;;;;2.53;1.40;;;;;;;5.91;90.97;98704.69;4989203;28;103826;-66
2022/12/30 07:36:35;;;;;;;1.00;0.90;;;;;;;6.14;90.77;98707.78;4983277;28;103254;-67
2022/12/30 07:39:03;;;;;;;1.20;1.10;;;;;;;6.27;90.36;98705.34;4989580;28;102600;-66
2022/12/30 07:41:30;;;;;;;1.97;1.07;;;;;;;6.27;89.56;98702.72;4986114;28;103919;-66
2022/12/30 07:43:58;;;;;;;1.43;1.17;;;;;;;6.30;89.44;98708.66;4983864;28;103917;-66
2022/12/30 07:46:29;;;;;;;2.63;1.40;;;;;;;6.25;90.39;98708.06;4984447;28;103314;-66
2022/12/30 07:48:58;;;;;;;1.47;1.10;;;;;;;6.23;91.46;98704.66;4990697;28;102764;-67
2022/12/30 07:51:26;;;;;;;2.67;1.03;;;;;;;6.41;91.33;98701.03;4990520;28;103851;-67
2022/12/30 07:53:54;;;;;;;1.33;1.23;;;;;;;6.68;90.71;98695.19;4987526;28;104075;-67
2022/12/30 07:56:22;;;;;;;1.27;1.10;;;;;;;6.75;90.29;98691.25;4989391;28;103392;-65
2022/12/30 07:58:53;;;;;;;1.60;1.30;;;;;;;6.66;90.55;98683.88;4985401;28;102961;-66
2022/12/30 08:01:22;;;;;;;1.70;1.20;;;;;;;6.74;90.69;98689.53;4990922;28;102671;-66
2022/12/30 08:03:50;;;;;;;3.53;1.67;;;;;;;6.93;89.54;98696.28;4983693;28;103312;-65
2022/12/30 08:06:19;;;;;;;1.27;1.10;;;;;;;7.00;89.39;98696.78;4984363;28;103342;-65
2022/12/30 08:08:48;;;;;;;2.70;1.60;;;;;;;7.17;89.33;98694.03;4992889;28;102688;-65
2022/12/30 08:11:16;;;;;;;1.60;1.17;;;;;;;7.41;87.84;98697.81;4985260;28;102722;-66
2022/12/30 08:13:45;;;;;;;1.10;1.00;;;;;;;7.44;87.80;98689.75;4987378;28;103331;-66
2022/12/30 08:16:15;;;;;;;1.57;1.20;;;;;;;7.70;86.28;98689.97;4988050;28;103366;-65
2022/12/30 08:18:44;;;;;;;1.53;1.20;;;;;;;7.65;86.00;98689.41;4986411;28;102783;-66
2022/12/30 08:21:14;;;;;;;2.40;1.30;;;;;;;7.59;85.54;98685.38;4980757;28;102710;-66
2022/12/30 08:23:44;;;;;;;1.67;1.57;;;;;;;7.78;86.24;98695.59;4980663;28;103359;-66
2022/12/30 08:26:15;;;;;;;5.43;1.60;;;;;;;7.93;85.52;98686.78;4988406;28;102918;-67
2022/12/30 08:28:43;;;;;;;2.57;1.43;;;;;;;7.93;85.83;98689.41;4981837;28;102648;-67
2022/12/30 08:31:14;;;;;;;2.30;1.00;;;;;;;8.18;84.98;98681.69;4985156;28;103603;-67
2022/12/30 08:33:42;;;;;;;2.70;1.40;;;;;;;8.05;84.22;98678.16;4988885;28;103404;-67
2022/12/30 08:36:13;;;;;;;3.23;1.50;;;;;;;8.36;84.57;98677.94;4981343;28;103195;-67
2022/12/30 08:38:44;;;;;;;3.57;1.57;;;;;;;7.94;84.94;98676.16;4983600;28;102748;-67
2022/12/30 08:41:16;;;;;;;3.90;1.30;;;;;;;8.04;85.27;98673.81;4984318;28;102979;-67
2022/12/30 08:43:44;;;;;;;1.40;1.27;;;;;;;8.21;85.18;98667.50;4983915;28;103206;-67
2022/12/30 08:46:12;;;;;;;1.30;1.20;;;;;;;7.97;85.05;98664.63;4988657;28;103356;-67
2022/12/30 08:48:40;;;;;;;1.10;1.00;;;;;;;8.12;86.06;98653.97;4987162;28;102898;-67
2022/12/30 08:51:09;;;;;;;2.57;1.80;;;;;;;8.31;85.20;98663.38;4982000;28;102665;-67
2022/12/30 08:53:38;;;;;;;1.63;0.93;;;;;;;8.91;84.68;98663.81;4980287;28;104522;-67
2022/12/30 08:56:09;;;;;;;2.30;1.20;;;;;;;8.88;82.74;98653.47;4984769;28;103206;-66
2022/12/30 08:58:37;;;;;;;1.73;1.13;;;;;;;8.86;82.45;98650.09;4980631;28;102693;-66
2022/12/30 09:01:09;;;;;;;3.00;1.60;;;;;;;8.99;82.51;98643.91;4981797;28;104164;-67
2022/12/30 09:03:37;;;;;;;2.07;1.37;;;;;;;9.18;82.99;98625.91;4982647;28;104751;-67
2022/12/30 09:06:06;;;;;;;1.80;1.70;;;;;;;8.81;82.90;98636.41;4983408;28;103258;-67
2022/12/30 09:08:35;;;;;;;2.57;1.60;;;;;;;9.00;83.41;98639.50;4982497;28;102534;-66
2022/12/30 09:11:05;;;;;;;2.40;1.60;;;;;;;9.23;81.98;98633.53;4989500;28;102709;-65
2022/12/30 09:13:36;;;;;;;1.67;1.57;;;;;;;9.15;81.21;98641.13;4987963;28;104089;-66
2022/12/30 09:16:05;;;;;;;1.97;1.33;;;;;;;9.53;80.86;98636.69;4986361;28;103383;-65
2022/12/30 09:18:33;;;;;;;2.10;1.53;;;;;;;9.45;80.94;98638.19;4988100;28;102776;-66
2022/12/30 09:21:01;;;;;;;2.00;1.43;;;;;;;9.26;81.12;98633.31;4988926;28;102747;-65
2022/12/30 09:23:30;;;;;;;1.83;1.50;;;;;;;9.11;81.70;98637.00;4991780;28;103267;-65
2022/12/30 09:25:58;;;;;;;1.57;1.20;;;;;;;8.91;82.19;98629.56;4985627;28;103298;-65
2022/12/30 09:28:27;;;;;;;2.97;1.97;;;;;;;8.85;80.58;98630.81;4982404;28;102576;-66
2022/12/30 09:30:56;;;;;;;2.47;1.70;;;;;;;8.98;80.82;98634.31;4993237;28;102722;-66
2022/12/30 09:33:25;;;;;;;2.23;1.40;;;;;;;8.99;80.73;98633.38;4993249;28;104170;-66
2022/12/30 09:35:54;;;;;;;2.20;1.87;;;;;;;9.06;80.40;98632.03;4984298;28;102584;-66
2022/12/30 09:38:22;;;;;;;3.17;1.73;;;;;;;8.97;80.90;98626.53;4986786;28;102893;-66
2022/12/30 09:40:57;;;;;;;2.13;1.73;;;;;;;9.24;80.09;98614.09;4987032;28;104040;-66
2022/12/30 09:43:31;;;;;;;2.33;1.70;;;;;;;9.04;80.28;98617.28;4983895;28;102577;-66
2022/12/30 09:46:16;;;;;;;1.70;1.60;;;;;;;9.35;79.94;98608.13;4986960;28;104081;-66
2022/12/30 09:48:50;;;;;;;2.37;1.63;;;;;;;9.11;79.68;98597.44;4986609;28;104747;-66
2022/12/30 09:51:26;;;;;;;3.07;1.50;;;;;;;9.32;78.56;98598.59;4984859;28;102687;-66
2022/12/30 09:53:58;;;;;;;1.63;1.37;;;;;;;9.41;79.41;98594.50;4983616;28;103212;-65
2022/12/30 09:56:29;;;;;;;2.57;1.60;;;;;;;9.39;79.04;98586.72;4982228;28;103248;-66
2022/12/30 09:59:03;;;;;;;1.40;1.23;;;;;;;9.71;78.30;98577.38;4987902;28;102712;-67
2022/12/30 10:01:41;;;;;;;1.70;1.40;;;;;;;9.62;78.24;98572.78;4982722;28;102761;-67
2022/12/30 10:04:15;;;;;;;1.80;1.30;;;;;;;9.65;77.98;98569.91;4981948;28;103222;-67
2022/12/30 10:06:56;;;;;;;2.33;1.33;;;;;;;9.69;78.05;98557.34;4987628;28;104195;-68
2022/12/30 10:09:46;;;;;;;1.43;1.30;;;;;;;10.08;77.77;98553.63;4985764;28;102699;-68
2022/12/30 10:12:32;;;;;;;2.40;1.50;;;;;;;9.97;77.49;98541.22;4987283;28;103913;-68
2022/12/30 10:15:15;;;;;;;1.83;1.60;;;;;;;10.02;77.26;98533.00;4981761;28;103222;-68
2022/12/30 10:18:03;;;;;;;1.60;1.40;;;;;;;9.78;77.63;98525.88;4982450;28;103196;-68
2022/12/30 10:20:48;;;;;;;2.60;1.57;;;;;;;10.02;76.63;98528.53;4985476;28;102677;-68
2022/12/30 10:23:26;;;;;;;1.40;1.13;;;;;;;10.00;77.00;98519.03;4984575;28;104036;-68
2022/12/30 10:26:03;;;;;;;2.77;1.70;;;;;;;10.16;76.54;98511.75;4985971;28;103095;-68
2022/12/30 10:28:36;;;;;;;3.40;1.80;;;;;;;10.10;75.93;98509.50;4985291;28;103150;-68
2022/12/30 10:31:07;;;;;;;1.80;1.30;;;;;;;10.42;75.80;98513.28;4982434;28;102709;-68
2022/12/30 10:33:37;;;;;;;2.67;1.60;;;;;;;10.79;74.80;98509.56;4987010;28;102671;-68
2022/12/30 10:36:14;;;;;;;1.87;1.20;;;;;;;10.92;74.81;98510.28;4986728;28;104114;-67
2022/12/30 10:38:42;;;;;;;1.83;1.57;;;;;;;10.87;74.54;98496.59;4987413;28;102915;-68
2022/12/30 10:41:29;;;;;;;1.70;1.53;;;;;;;10.76;74.35;98499.22;4987139;28;102701;-68
2022/12/30 10:44:16;;;;;;;2.07;1.50;;;;;;;10.93;72.55;98501.41;4978448;28;102625;-68
2022/12/30 10:47:08;;;;;;;1.80;1.27;;;;;;;11.30;73.28;98494.13;4982948;28;103263;-68
2022/12/30 10:49:54;;;;;;;2.10;1.60;;;;;;;11.15;73.21;98489.16;4984902;28;102971;-68
2022/12/30 10:52:23;;;;;;;1.73;1.20;;;;;;;11.40;71.83;98483.63;4979532;28;102672;-68
2022/12/30 10:54:51;;;;;;;3.03;1.63;;;;;;;11.18;72.27;98484.50;4982125;28;102963;-67
2022/12/30 10:57:24;;;;;;;1.87;1.53;;;;;;;11.21;72.95;98484.25;4979140;28;103336;-68
2022/12/30 10:59:56;;;;;;;3.13;1.80;;;;;;;10.95;73.14;98473.06;4979641;28;103283;-68
2022/12/30 11:02:29;;;;;;;2.13;1.43;;;;;;;11.19;73.18;98470.31;4982249;28;102852;-68
2022/12/30 11:05:01;;;;;;;2.33;1.90;;;;;;;11.38;72.08;98465.25;4979357;28;102829;-68
2022/12/30 11:07:29;;;;;;;4.67;1.67;;;;;;;11.61;71.15;98460.78;4979715;28;103370;-68
2022/12/30 11:10:13;;;;;;;2.33;1.40;;;;;;;11.61;71.29;98461.63;4984991;28;103283;-68
2022/12/30 11:15:50;;;;;;;1.47;1.00;;;;;;;11.21;71.99;98457.81;4974454;28;102759;-68
2022/12/30 11:18:29;;;;;;;1.00;0.70;;;;;;;11.32;71.65;98451.66;4988804;27;103273;-68
2022/12/30 11:21:00;;;;;;;2.73;0.90;;;;;;;11.41;72.29;98448.31;4969805;28;103250;-68
2022/12/30 11:23:32;;;;;;;1.00;0.90;;;;;;;11.45;71.19;98449.75;4968586;28;103150;-69
2022/12/30 11:26:02;;;;;;;2.83;1.47;;;;;;;11.57;70.85;98446.09;4973243;28;103155;-68
2022/12/30 11:28:35;;;;;;;1.37;0.97;;;;;;;11.47;70.35;98453.09;4974511;28;103247;-68
2022/12/30 11:31:07;;;;;;;0.70;0.67;;;;;;;11.61;70.68;98444.91;4975111;28;102914;-67
2022/12/30 11:33:38;;;;;;;1.00;0.80;;;;;;;11.60;69.96;98438.78;4974752;28;103169;-68
2022/12/30 11:36:17;;;;;;;1.00;0.90;;;;;;;11.47;70.12;98443.38;4978781;28;103006;-68
2022/12/30 11:38:47;;;;;;;1.47;0.77;;;;;;;11.54;70.04;98428.69;4970030;27;103571;-68
2022/12/30 11:41:27;;;;;;;1.23;0.80;;;;;;;11.77;69.21;98429.50;4984247;27;103275;-67
2022/12/30 11:44:16;;;;;;;2.40;0.90;;;;;;;11.77;69.79;98424.22;4978513;28;102749;-68
2022/12/30 11:46:46;;;;;;;0.83;0.83;;;;;;;11.96;69.19;98419.09;4977312;28;102589;-67
2022/12/30 11:49:31;;;;;;;1.03;0.80;;;;;;;11.68;70.13;98414.34;4971692;28;103306;-68
2022/12/30 11:52:09;;;;;;;1.43;0.90;;;;;;;11.62;69.82;98420.16;4972985;28;103186;-68
2022/12/30 11:54:45;;;;;;;0.97;0.80;;;;;;;11.54;70.31;98406.66;4974805;28;102683;-68
2022/12/30 11:57:25;;;;;;;1.60;0.93;;;;;;;11.39;70.69;98394.69;4974939;28;104284;-68
2022/12/30 11:59:56;;;;;;;2.47;0.90;;;;;;;11.60;70.52;98383.22;4974758;28;103139;-68
2022/12/30 12:02:26;;;;;;;1.43;0.97;;;;;;;11.42;71.33;98375.94;4962809;28;103252;-67
2022/12/30 12:04:55;;;;;;;1.47;0.80;;;;;;;11.15;72.19;98380.75;4977979;28;102786;-69
2022/12/30 12:07:28;;;;;;;1.27;0.70;;;;;;;11.42;71.30;98378.56;4983977;28;102767;-68
2022/12/30 12:10:19;;;;;;;1.20;0.80;;;;;;;11.32;71.16;98394.34;4980771;28;104327;-67
2022/12/30 12:12:52;;;;;;;0.97;0.70;;;;;;;11.26;71.30;98392.19;4981373;28;103343;-67
2022/12/30 12:15:33;;;;;;;0.80;0.70;;;;;;;11.41;71.70;98379.53;4981223;28;102669;-68
2022/12/30 12:18:06;;;;;;;1.50;0.70;;;;;;;11.01;72.92;98379.22;4983684;28;102710;-67
2022/12/30 12:20:40;;;;;;;1.10;0.80;;;;;;;11.12;71.62;98371.28;4974450;28;104412;-68
2022/12/30 12:23:20;;;;;;;0.70;0.60;;;;;;;11.09;71.92;98368.06;4981493;28;102717;-68
2022/12/30 12:26:02;;;;;;;1.60;0.53;;;;;;;10.97;71.93;98369.88;4980181;28;102649;-67
2022/12/30 12:28:32;;;;;;;1.33;0.93;;;;;;;10.91;72.85;98376.47;4980201;28;102794;-68
2022/12/30 12:31:19;;;;;;;1.00;0.90;;;;;;;10.83;72.32;98363.03;4981244;28;103132;-68
2022/12/30 12:33:52;;;;;;;1.20;0.90;;;;;;;10.78;73.15;98351.97;4983612;28;103228;-67
2022/12/30 12:36:28;;;;;;;0.50;0.50;;;;;;;10.66;72.98;98360.03;4976273;28;102756;-68
2022/12/30 12:39:03;;;;;;;0.63;0.63;;;;;;;10.83;72.89;98344.53;4980240;28;104439;-68
2022/12/30 12:41:48;;;;;;;2.37;1.00;;;;;;;10.79;73.36;98340.44;4976833;28;103326;-68
2022/12/30 12:44:39;;;;;;;1.63;0.80;;;;;;;10.78;73.15;98344.03;4982248;28;103278;-68
2022/12/30 12:47:21;;;;;;;0.70;0.70;;;;;;;10.81;73.18;98349.06;4980119;28;103070;-68